Chadstone Weather > Observations for 26/03/21

Select Day:



Observations
Time Temp Hum DP Wind Gust Dir Rain >9am Press
C % C kph kph mm hPa
00:00 15.6 83 12.7 3.4 9.7 W 0.9 1000.7
00:10 15.5 83 12.6 0.9 6.1 W 0.9 1000.8
00:20 15.5 83 12.6 2.1 6.1 WNW 0.9 1000.9
00:30 15.5 83 12.6 2.2 7.2 W 0.9 1001.1
00:40 15.6 83 12.7 2.8 9.7 WNW 0.9 1001.1
00:50 15.6 83 12.7 2.9 9.7 WNW 0.9 1001.1
01:00 15.7 84 13.0 2.1 9.7 WNW 0.9 1001.1
01:10 15.7 84 13.0 2.9 8.6 W 0.9 1001.1
01:20 15.7 84 13.0 2.3 6.1 W 0.9 1001.1
01:30 15.5 84 12.8 2.9 7.2 WNW 0.9 1001.2
01:40 15.4 84 12.7 2.2 6.1 NW 0.9 1001.2
01:50 15.4 84 12.7 1.0 3.6 NNW 0.9 1001.2
02:00 15.2 84 12.5 0.7 3.6 NNW 0.9 1001.1
02:10 14.9 85 12.4 0.0 2.5 N 0.9 1001.1
02:20 14.6 86 12.3 1.0 3.6 NNW 0.9 1001.2
02:30 14.4 86 12.1 0.0 1.1 N 0.9 1001.2
02:40 14.1 86 11.8 0.1 2.5 N 0.9 1001.2
02:50 13.9 88 12.0 0.7 2.5 NNW 0.9 1001.2
03:00 13.7 88 11.8 0.0 2.5 NNW 0.9 1001.0
03:10 13.4 88 11.5 0.0 1.1 NW 0.9 1001.0
03:20 13.1 89 11.3 0.0 0.0 N 0.9 1001.0
03:30 13.0 89 11.2 0.0 0.0 N 0.9 1001.0
03:40 12.8 90 11.2 0.0 0.0 N 0.9 1000.9
03:50 12.7 91 11.3 0.3 3.6 NNW 0.9 1000.8
04:00 12.7 91 11.3 0.5 3.6 N 0.9 1000.8
04:10 12.6 91 11.2 1.2 3.6 NNW 0.9 1000.8
04:20 12.7 92 11.4 0.7 3.6 N 0.9 1000.7
04:30 12.5 92 11.2 0.0 0.0 N 0.9 1000.7
04:40 12.4 92 11.1 0.0 0.0 N 0.9 1000.7
04:50 12.3 92 11.0 0.0 1.1 N 0.9 1000.6
05:00 12.2 92 10.9 0.0 0.0 N 0.9 1000.6
05:10 12.2 92 10.9 0.0 0.0 N 0.9 1000.7
05:20 12.1 92 10.8 0.0 0.0 N 0.9 1000.9
05:30 12.0 92 10.7 1.3 5.0 NNW 0.9 1000.8
05:40 12.2 93 11.1 1.1 5.0 NNW 0.9 1001.0
05:50 12.2 93 11.1 1.7 5.0 N 0.9 1001.1
06:00 12.2 93 11.1 1.5 3.6 N 0.9 1001.1
06:10 12.3 93 11.2 0.7 5.0 NNW 0.9 1001.1
06:20 12.3 93 11.2 0.5 6.1 N 0.9 1001.2
06:30 12.2 93 11.1 1.0 6.1 N 0.9 1001.3
06:40 12.2 93 11.1 1.6 5.0 NNW 0.9 1001.3
06:50 12.1 93 11.0 2.1 6.1 N 0.9 1001.3
07:00 12.2 93 11.1 2.4 6.1 N 0.9 1001.4
07:10 12.1 92 10.8 2.2 5.0 NNW 0.9 1001.6
07:20 12.1 92 10.8 1.6 5.0 N 0.9 1001.9
07:30 12.0 92 10.7 2.1 6.1 NW 0.9 1002.1
07:40 11.9 93 10.8 2.5 7.2 NNW 0.9 1002.2
07:50 12.0 92 10.7 1.7 5.0 NNW 0.9 1002.4
08:00 12.1 93 11.0 2.2 6.1 NNW 0.9 1002.5
08:10 12.2 93 11.1 1.5 6.1 N 0.9 1002.6
08:20 12.3 93 11.2 2.0 6.1 NNW 0.9 1002.6
08:30 12.6 93 11.5 2.1 6.1 NNW 0.9 1002.5
08:40 13.0 92 11.7 3.5 8.6 N 0.9 1002.5
08:50 13.3 92 12.0 2.3 8.6 N 0.9 1002.4
09:00 13.6 91 12.2 4.3 8.6 N 0.9 1002.3
09:10 14.0 89 12.2 4.4 11.2 N 0.9 1002.3
09:20 14.4 88 12.4 4.1 7.2 N 0.9 1002.4
09:30 14.8 87 12.7 3.8 9.7 N 0.9 1002.4
09:40 15.2 85 12.7 4.0 11.2 N 0.9 1002.3
09:50 15.5 84 12.8 4.9 11.2 NNW 0.9 1002.2
10:00 15.9 82 12.8 6.4 13.3 N 0.0 1002.3
10:10 16.2 78 12.4 6.7 13.3 N 0.0 1002.1
10:20 16.6 77 12.6 7.9 13.3 NNE 0.0 1002.2
10:30 16.7 76 12.5 4.3 9.7 N 0.0 1002.1
10:40 17.2 75 12.7 4.1 11.2 NNW 0.0 1002.0
10:50 17.5 74 12.8 3.7 8.6 NW 0.0 1001.8
11:00 17.7 73 12.8 5.2 12.2 NW 0.0 1001.8
11:10 18.0 72 12.9 3.6 8.6 NW 0.0 1001.5
11:20 18.2 71 12.9 5.9 12.2 NW 0.0 1001.4
11:30 18.4 70 12.8 7.1 14.8 NW 0.0 1001.6
11:40 18.9 69 13.1 8.3 17.3 NNW 0.0 1001.5
11:50 19.3 66 12.8 8.5 14.8 N 0.0 1001.1
12:00 19.6 65 12.9 4.6 13.3 NW 0.0 1000.7
12:10 20.0 62 12.5 5.4 13.3 N 0.0 1000.7
12:20 20.2 60 12.2 5.5 14.8 N 0.0 1000.6
12:30 20.4 57 11.6 7.4 18.4 NNW 0.0 1000.7
12:40 20.3 56 11.2 7.0 18.4 NNW 0.0 1000.6
12:50 20.4 57 11.6 7.6 15.8 W 0.0 1000.5
13:00 20.4 56 11.3 7.1 12.2 NW 0.0 1000.4
13:10 20.2 57 11.4 4.2 12.2 NW 0.0 1000.2
13:20 20.2 58 11.7 4.8 15.8 NW 0.0 1000.0
13:30 20.3 59 12.0 6.0 15.8 WNW 0.0 999.8
13:40 20.4 60 12.4 6.4 15.8 NNW 0.0 999.7
13:50 20.6 58 12.1 7.6 25.6 NW 0.0 999.7
14:00 20.7 60 12.7 6.8 15.8 NNW 0.0 999.5
14:10 20.7 58 12.2 10.2 20.9 NW 0.0 999.6
14:20 20.9 59 12.6 10.1 18.4 NNW 0.0 999.5
14:30 20.9 60 12.9 8.8 18.4 NNW 0.0 999.0
14:40 20.9 57 12.1 7.8 19.4 NNW 0.0 998.9
14:50 20.9 56 11.8 5.9 13.3 NNW 0.0 998.9
15:00 21.1 55 11.7 6.9 14.8 NW 0.0 998.8
15:10 21.1 53 11.2 8.3 15.8 NW 0.0 998.9
15:20 20.9 54 11.3 8.5 23.4 NNW 0.0 998.9
15:30 21.0 53 11.1 7.6 20.9 NW 0.0 998.8
15:40 20.9 54 11.3 10.8 20.9 NNW 0.0 998.9
15:50 20.9 55 11.5 7.3 18.4 NW 0.0 998.8
16:00 20.9 55 11.5 7.2 20.9 NNW 0.0 998.7
16:10 21.1 53 11.2 5.1 13.3 NNW 0.0 998.8
16:20 21.2 53 11.3 7.7 18.4 NW 0.0 998.6
16:30 21.5 53 11.5 8.9 17.3 NW 0.0 998.7
16:40 22.1 49 10.9 7.9 18.4 NNW 0.0 998.5
16:50 21.9 50 11.0 8.0 15.8 NW 0.0 998.4
17:00 21.3 52 11.1 7.8 15.8 NNW 0.0 998.6
17:10 21.1 53 11.2 7.3 14.8 NNW 0.0 998.5
17:20 21.3 53 11.3 8.3 15.8 N 0.0 998.4
17:30 21.2 53 11.3 7.1 15.8 NW 0.0 998.4
17:40 21.1 54 11.4 7.3 14.8 NNW 0.0 998.2
17:50 21.2 53 11.3 9.4 20.9 NNW 0.0 998.2
18:00 21.1 53 11.2 8.9 18.4 NNW 0.0 998.2
18:10 21.1 54 11.4 4.3 11.2 NW 0.0 998.1
18:20 20.9 54 11.3 7.3 14.8 N 0.0 998.3
18:30 20.8 54 11.2 6.4 11.2 NW 0.0 998.4
18:40 20.6 54 11.0 6.4 14.8 NW 0.0 998.8
18:50 20.4 54 10.8 5.3 12.2 NW 0.0 998.8
19:00 20.3 55 11.0 6.7 13.3 NW 0.0 998.9
19:10 20.2 55 10.9 4.8 9.7 NNW 0.0 999.1
19:20 20.0 56 11.0 3.7 9.7 NW 0.0 999.1
19:30 19.8 58 11.3 2.3 6.1 NW 0.0 999.0
19:40 19.6 59 11.4 2.2 7.2 NW 0.0 999.1
19:50 19.6 59 11.4 1.2 5.0 NW 0.0 999.2
20:00 19.4 60 11.4 0.4 3.6 NNW 0.0 999.2
20:10 19.2 61 11.5 1.5 6.1 NNW 0.0 999.2
20:20 19.1 62 11.7 2.3 6.1 NW 0.0 999.2
20:30 19.1 62 11.7 2.5 9.7 NNE 0.0 999.1
20:40 19.1 62 11.7 3.0 8.6 N 0.0 999.1
20:50 19.0 63 11.8 3.6 11.2 NNW 0.0 999.2
21:00 18.7 65 12.0 2.7 8.6 NNW 0.0 999.2
21:10 18.7 65 12.0 0.7 6.1 NNW 0.0 999.2
21:20 18.4 66 11.9 0.3 5.0 WNW 0.0 999.4
21:30 18.2 66 11.8 0.7 3.6 NNW 0.0 999.4
21:40 18.0 67 11.8 1.4 5.0 NNW 0.0 999.4
21:50 17.8 68 11.8 1.7 5.0 NNW 0.0 999.4
22:00 17.6 68 11.6 0.8 6.1 NNW 0.0 999.4
22:10 17.4 69 11.7 0.8 5.0 NW 0.0 999.3
22:20 17.1 69 11.4 1.7 5.0 NW 0.0 999.5
22:30 17.0 70 11.5 1.2 5.0 NW 0.0 999.4
22:40 16.8 72 11.7 0.7 5.0 N 0.0 999.2
22:50 16.8 72 11.7 0.4 5.0 NNW 0.0 999.2
23:00 16.8 72 11.7 0.6 5.0 N 0.0 999.2
23:10 16.9 73 12.0 0.7 6.1 N 0.0 999.1
23:20 17.0 72 11.9 3.0 8.6 NNE 0.0 999.1
23:30 17.1 73 12.2 3.3 9.7 N 0.0 999.0
23:40 17.0 75 12.5 1.2 5.0 N 0.0 999.0
23:50 16.9 76 12.7 2.1 6.1 N 0.0 998.8